City Of Cleveland — WDC2358 — position and weather

sailwx.info

Track history (hours):
 
Tides and Currents Weather Stations Pressure Air Temp Water Temp Dewpoint Dewpoint Depression Visibility Wind Speed Wind Dir Waves Ship Positions

City Of Cleveland

Owner: JANTRAN, INC., ROSEDALE, MS. More information available from US FCC via Universal Licensing System and Coast Guard Vessel Documentation Center.

Last reported at 2017-Jan-13 20:33 UTC. Time now 2017-Jan-25 01:27 UTC.
Position N 32°02' W 091°04'.
Warning: this ship's position is 11 days out of date.

Length 42 m; draft 12.5 m.

Type: Towing. MMSI: 366991810.

Date/timePositionNaut miles runAvg speedWind from/ knotsBaromVisibWave heightAir tempDewpointWater temp
2017-Jan-13 20:33N 32°02' W 091°04'6 5.9
2017-Jan-13 19:33N 32°08' W 091°06'6 6.5
2017-Jan-13 18:34N 32°11' W 090°60'9 8.7
2017-Jan-13 17:34N 32°19' W 090°54'4 3.6
2017-Jan-13 16:34N 32°21' W 090°58'0 0.0
2017-Jan-13 15:34N 32°21' W 090°58'0 0.0
2017-Jan-13 14:34N 32°21' W 090°58'0 0.0
2017-Jan-13 13:34N 32°21' W 090°58'0 0.0
2017-Jan-13 12:33N 32°21' W 090°58'0 0.0
2017-Jan-13 11:34N 32°21' W 090°58'0 0.0
2017-Jan-13 10:34N 32°21' W 090°58'0 0.0
2017-Jan-13 09:34N 32°21' W 090°58'0 0.0
2017-Jan-13 08:34N 32°21' W 090°58'0 0.0
2017-Jan-13 07:34N 32°21' W 090°58'0 0.0
2017-Jan-13 06:34N 32°21' W 090°58'0 0.3
2017-Jan-13 05:34N 32°21' W 090°57'4 3.8
2017-Jan-13 04:33N 32°24' W 090°59'8 8.2
2017-Jan-13 03:34N 32°29' W 091°07'8 7.9
2017-Jan-13 02:34N 32°37' W 091°09'4 0.2
2017-Jan-12 10:13N 32°40' W 091°07'4 3.6
2017-Jan-12 09:13N 32°38' W 091°09'3 1.2
2017-Jan-12 07:10N 32°35' W 091°08'3 4.2
2017-Jan-12 06:34N 32°33' W 091°06'4 4.4
2017-Jan-12 05:34N 32°29' W 091°07'4 4.1
2017-Jan-12 04:34N 32°26' W 091°03'4 3.9
2017-Jan-12 03:34N 32°24' W 090°59'3 3.1
2017-Jan-12 02:34N 32°21' W 090°59'4 4.2
2017-Jan-12 01:34N 32°20' W 090°54'5 4.5
2017-Jan-12 00:34N 32°16' W 090°57'4 4.0
2017-Jan-11 23:34N 32°13' W 090°59'4 4.2
2017-Jan-11 22:34N 32°09' W 091°00'4 3.6
2017-Jan-11 21:29N 32°08' W 091°05'4 2.9
2017-Jan-11 20:17N 32°05' W 091°04'3 4.5
2017-Jan-11 19:31N 32°01' W 091°05'  
2017-Jan-05 09:22N 30°24' W 091°12'103 3.9
2017-Jan-04 06:33N 32°07' W 091°07'6 5.6
2017-Jan-04 05:34N 32°09' W 091°00'8 8.1
2017-Jan-04 04:34N 32°17' W 090°57'2 2.5
2017-Jan-04 03:34N 32°18' W 090°55'0 0.0
2017-Jan-04 02:34N 32°18' W 090°55'0 0.0
2017-Jan-04 01:34N 32°18' W 090°55'0 0.0
2017-Jan-04 00:34N 32°18' W 090°55'3 2.8
2017-Jan-03 23:33N 32°21' W 090°56'6 6.2
2017-Jan-03 22:34N 32°25' W 091°01'8 7.0
2017-Jan-03 21:25N 32°32' W 091°06'  
Track history (hours):
 
Tides and Currents Weather Stations Pressure Air Temp Water Temp Dewpoint Dewpoint Depression Visibility Wind Speed Wind Dir Waves Ship Positions

City Of Cleveland

Owner: JANTRAN, INC., ROSEDALE, MS. More information available from US FCC via Universal Licensing System and Coast Guard Vessel Documentation Center.

Last reported at 2017-Jan-13 20:33 UTC. Time now 2017-Jan-25 01:27 UTC.
Position N 32°02' W 091°04'.
Warning: this ship's position is 11 days out of date.

Length 42 m; draft 12.5 m.

Type: Towing. MMSI: 366991810.

Date/timePositionNaut miles runAvg speedWind from/ knotsBaromVisibWave heightAir tempDewpointWater temp
2017-Jan-13 20:33N 32°02' W 091°04'6 5.9
2017-Jan-13 19:33N 32°08' W 091°06'6 6.5
2017-Jan-13 18:34N 32°11' W 090°60'9 8.7
2017-Jan-13 17:34N 32°19' W 090°54'4 3.6
2017-Jan-13 16:34N 32°21' W 090°58'0 0.0
2017-Jan-13 15:34N 32°21' W 090°58'0 0.0
2017-Jan-13 14:34N 32°21' W 090°58'0 0.0
2017-Jan-13 13:34N 32°21' W 090°58'0 0.0
2017-Jan-13 12:33N 32°21' W 090°58'0 0.0
2017-Jan-13 11:34N 32°21' W 090°58'0 0.0
2017-Jan-13 10:34N 32°21' W 090°58'0 0.0
2017-Jan-13 09:34N 32°21' W 090°58'0 0.0
2017-Jan-13 08:34N 32°21' W 090°58'0 0.0
2017-Jan-13 07:34N 32°21' W 090°58'0 0.0
2017-Jan-13 06:34N 32°21' W 090°58'0 0.3
2017-Jan-13 05:34N 32°21' W 090°57'4 3.8
2017-Jan-13 04:33N 32°24' W 090°59'8 8.2
2017-Jan-13 03:34N 32°29' W 091°07'8 7.9
2017-Jan-13 02:34N 32°37' W 091°09'4 0.2
2017-Jan-12 10:13N 32°40' W 091°07'4 3.6
2017-Jan-12 09:13N 32°38' W 091°09'3 1.2
2017-Jan-12 07:10N 32°35' W 091°08'3 4.2
2017-Jan-12 06:34N 32°33' W 091°06'4 4.4
2017-Jan-12 05:34N 32°29' W 091°07'4 4.1
2017-Jan-12 04:34N 32°26' W 091°03'4 3.9
2017-Jan-12 03:34N 32°24' W 090°59'3 3.1
2017-Jan-12 02:34N 32°21' W 090°59'4 4.2
2017-Jan-12 01:34N 32°20' W 090°54'5 4.5
2017-Jan-12 00:34N 32°16' W 090°57'4 4.0
2017-Jan-11 23:34N 32°13' W 090°59'4 4.2
2017-Jan-11 22:34N 32°09' W 091°00'4 3.6
2017-Jan-11 21:29N 32°08' W 091°05'4 2.9
2017-Jan-11 20:17N 32°05' W 091°04'3 4.5
2017-Jan-11 19:31N 32°01' W 091°05'  
2017-Jan-05 09:22N 30°24' W 091°12'103 3.9
2017-Jan-04 06:33N 32°07' W 091°07'6 5.6
2017-Jan-04 05:34N 32°09' W 091°00'8 8.1
2017-Jan-04 04:34N 32°17' W 090°57'2 2.5
2017-Jan-04 03:34N 32°18' W 090°55'0 0.0
2017-Jan-04 02:34N 32°18' W 090°55'0 0.0
2017-Jan-04 01:34N 32°18' W 090°55'0 0.0
2017-Jan-04 00:34N 32°18' W 090°55'3 2.8
2017-Jan-03 23:33N 32°21' W 090°56'6 6.2
2017-Jan-03 22:34N 32°25' W 091°01'8 7.0
2017-Jan-03 21:25N 32°32' W 091°06'  

Dump ship's entire track history